KLVM

Mission Field Airport

Livingston, Montana, USA
METAR KLVM 222053Z AUTO 07011G19KT 10SM CLR 16/01 A3016 RMK AO2 SLP209 T01560006 56019
Observed Flight Rules
Oct-22 @ 20:53 UTC (38 minutes ago) Visual Flight Rules
Wind Visibility Clouds
70° at 11 knots
 Gusting to 19 knots
10 miles
  • Clear skies
Temperatures Readings
Current 16°C / 61°F
Dewpoint 1°C / 34°F
Humidity 36%
Altimeter 30.16" Hg
Pressure 1020.9 hPa
Elevation 1418
METAR KLVM 222053Z AUTO 07011G19KT 10SM CLR 16/01 A3016 RMK AO2 SLP209 T01560006 56019
Observed Flight Rules
Oct-22 @ 20:53 UTC
(38 minutes ago)
VFR
Wind Visibility
70° at 11 knots
 Gusting to 19 knots
10 miles
Clouds
  • Clear skies
Temperature Dewpoint
16°C / 61°F 1°C / 34°F
Humidity Altimeter Pressure
36% 30.16" Hg 1020.9 hPa